createdAt,value
2022-08-05T00:01:36.425Z,91.80
2022-08-05T00:04:17.468Z,91.70
2022-08-05T00:06:45.266Z,91.80
2022-08-05T00:09:15.830Z,91.80
2022-08-05T00:11:48.683Z,92.00
2022-08-05T00:14:27.499Z,91.90
2022-08-05T00:16:56.493Z,91.90
2022-08-05T00:19:24.911Z,92.00
2022-08-05T00:22:00.625Z,91.90
2022-08-05T00:24:30.757Z,91.90
2022-08-05T00:26:59.979Z,92.00
2022-08-05T00:29:38.188Z,92.10
2022-08-05T00:32:13.530Z,92.00
2022-08-05T00:35:04.389Z,92.00
2022-08-05T00:37:51.056Z,92.10
2022-08-05T00:40:27.345Z,92.10
2022-08-05T00:43:02.851Z,91.80
2022-08-05T00:45:42.884Z,99.90
2022-08-05T00:48:17.152Z,91.80
2022-08-05T00:50:46.555Z,92.10
2022-08-05T00:53:45.201Z,91.90
2022-08-05T00:56:05.499Z,91.80
2022-08-05T00:58:35.264Z,91.40
2022-08-05T01:01:08.690Z,91.40
2022-08-05T01:03:40.006Z,91.40
2022-08-05T01:06:14.204Z,91.20
2022-08-05T01:08:44.558Z,91.30
2022-08-05T01:11:13.667Z,91.40
2022-08-05T01:14:08.766Z,99.90
2022-08-05T01:16:54.797Z,91.20
2022-08-05T01:20:01.181Z,91.20
2022-08-05T01:23:05.789Z,91.30
2022-08-05T01:25:57.405Z,91.30
2022-08-05T01:28:33.057Z,91.20
2022-08-05T01:31:44.775Z,91.60
2022-08-05T01:34:32.746Z,92.00
2022-08-05T01:37:25.112Z,92.20
2022-08-05T01:39:59.061Z,91.80
2022-08-05T01:42:28.068Z,92.20
2022-08-05T01:44:59.216Z,92.40
2022-08-05T01:47:38.607Z,92.90
2022-08-05T01:50:16.014Z,92.90
2022-08-05T01:52:49.853Z,93.10
2022-08-05T01:55:22.425Z,93.00
2022-08-05T01:58:11.777Z,93.20
2022-08-05T02:00:43.785Z,93.40
2022-08-05T02:03:38.211Z,93.60
2022-08-05T02:06:33.275Z,93.80
2022-08-05T02:08:58.794Z,94.00
2022-08-05T02:11:33.989Z,93.90
2022-08-05T02:14:04.813Z,94.10
2022-08-05T02:16:39.579Z,94.10
2022-08-05T02:19:27.517Z,94.30
2022-08-05T02:22:05.201Z,93.70
2022-08-05T02:24:38.128Z,93.80
2022-08-05T02:27:09.092Z,94.00
2022-08-05T02:29:58.864Z,94.00
2022-08-05T02:32:31.474Z,94.10
2022-08-05T02:35:09.555Z,94.30
2022-08-05T02:37:46.548Z,94.20
2022-08-05T02:40:17.253Z,94.30
2022-08-05T02:42:52.847Z,94.50
2022-08-05T02:45:23.813Z,94.40
2022-08-05T02:48:06.337Z,94.70
2022-08-05T02:50:38.233Z,94.80
2022-08-05T02:53:18.762Z,94.60
2022-08-05T02:55:54.943Z,94.90
2022-08-05T02:58:28.925Z,94.60
2022-08-05T03:01:01.953Z,94.80
2022-08-05T03:03:34.325Z,94.80
2022-08-05T03:06:55.504Z,94.80
2022-08-05T03:09:11.343Z,94.70
2022-08-05T03:11:54.886Z,94.50
2022-08-05T03:14:25.122Z,94.20
2022-08-05T03:16:53.811Z,94.50
2022-08-05T03:19:34.454Z,94.50
2022-08-05T03:22:05.099Z,94.60
2022-08-05T03:24:46.842Z,94.60
2022-08-05T03:27:15.885Z,94.60
2022-08-05T03:29:45.501Z,94.60
2022-08-05T03:32:31.372Z,94.60
2022-08-05T03:34:59.470Z,94.70
2022-08-05T03:37:28.149Z,94.70
2022-08-05T03:39:59.036Z,94.70
2022-08-05T03:42:32.148Z,94.90
2022-08-05T03:45:01.526Z,94.70
2022-08-05T03:47:35.365Z,94.70
2022-08-05T03:50:08.765Z,94.70
2022-08-05T03:55:34.325Z,94.70
2022-08-05T03:56:04.121Z,94.20
2022-08-05T03:58:36.517Z,95.00
2022-08-05T04:01:07.879Z,94.90
2022-08-05T04:03:38.042Z,95.00
2022-08-05T04:06:06.745Z,94.90
2022-08-05T04:08:37.148Z,95.10
2022-08-05T04:11:08.416Z,95.40
2022-08-05T04:13:50.059Z,99.90
2022-08-05T04:16:24.940Z,95.70
2022-08-05T04:18:54.789Z,95.50
2022-08-05T04:22:09.084Z,95.80
2022-08-05T04:24:18.820Z,95.80
2022-08-05T04:26:50.437Z,95.70
2022-08-05T04:29:18.462Z,96.00
2022-08-05T04:31:47.052Z,95.90
2022-08-05T04:34:31.696Z,96.20
2022-08-05T04:36:59.696Z,95.90
2022-08-05T04:39:28.182Z,95.80
2022-08-05T04:41:56.143Z,95.90
2022-08-05T04:44:29.289Z,95.90
2022-08-05T04:46:59.443Z,95.90
2022-08-05T04:49:38.096Z,95.80
2022-08-05T04:52:16.164Z,95.90
2022-08-05T04:54:43.595Z,95.90
2022-08-05T04:57:10.988Z,95.50
2022-08-05T04:59:40.767Z,95.70
2022-08-05T05:02:36.742Z,99.90
2022-08-05T05:05:02.743Z,95.60
2022-08-05T05:07:32.702Z,95.70
2022-08-05T05:10:06.325Z,95.80
2022-08-05T05:12:34.050Z,95.70
2022-08-05T05:15:05.924Z,95.70
2022-08-05T05:17:56.219Z,95.60
2022-08-05T05:20:28.841Z,96.00
2022-08-05T05:22:57.760Z,95.60
2022-08-05T05:25:32.849Z,95.80
2022-08-05T05:28:11.842Z,95.70
2022-08-05T05:30:40.188Z,94.90
2022-08-05T05:33:16.465Z,95.60
2022-08-05T05:35:46.788Z,95.50
2022-08-05T05:38:22.889Z,95.70
2022-08-05T05:40:57.833Z,99.90
2022-08-05T05:43:54.583Z,99.90
2022-08-05T05:46:17.509Z,99.90
2022-08-05T05:48:48.539Z,99.90
2022-08-05T05:51:23.819Z,95.80
2022-08-05T05:53:57.464Z,99.90
2022-08-05T05:56:31.843Z,95.80
2022-08-05T05:59:06.419Z,99.90
2022-08-05T06:01:37.170Z,96.20
2022-08-05T06:04:12.021Z,96.00
2022-08-05T06:06:42.664Z,96.30
2022-08-05T06:09:17.532Z,96.20
2022-08-05T06:12:02.154Z,96.20
2022-08-05T06:14:34.741Z,96.00
2022-08-05T06:17:22.271Z,96.10
2022-08-05T06:19:57.081Z,96.00
2022-08-05T06:22:28.314Z,96.00
2022-08-05T06:24:55.839Z,96.50
2022-08-05T06:28:10.480Z,96.20
2022-08-05T06:30:17.601Z,96.30
2022-08-05T06:32:47.119Z,96.20
2022-08-05T06:35:15.399Z,96.30
2022-08-05T06:38:08.361Z,96.30
2022-08-05T06:40:44.496Z,96.40
2022-08-05T06:43:58.092Z,95.90
2022-08-05T06:46:06.964Z,96.00
2022-08-05T06:48:56.261Z,95.90
2022-08-05T06:51:29.960Z,95.80
2022-08-05T06:54:03.617Z,95.60
2022-08-05T06:56:34.365Z,95.90
2022-08-05T06:59:08.678Z,95.80
2022-08-05T07:01:37.338Z,94.90
2022-08-05T07:04:08.311Z,94.90
2022-08-05T07:06:35.751Z,95.00
2022-08-05T07:09:04.035Z,95.00
2022-08-05T07:11:37.340Z,94.40
2022-08-05T07:14:29.625Z,94.00
2022-08-05T07:17:58.198Z,93.70
2022-08-05T07:20:31.388Z,94.40
2022-08-05T07:22:38.819Z,94.50
2022-08-05T07:25:21.780Z,94.30
2022-08-05T07:28:00.680Z,94.30
2022-08-05T07:30:33.422Z,94.60
2022-08-05T07:33:09.812Z,94.30
2022-08-05T07:36:01.938Z,94.40
2022-08-05T07:38:33.695Z,94.80
2022-08-05T07:42:08.920Z,94.30
2022-08-05T07:43:56.999Z,94.30
2022-08-05T07:46:26.579Z,94.30
2022-08-05T07:49:02.172Z,94.10
2022-08-05T07:51:40.566Z,94.30
2022-08-05T07:54:15.928Z,94.30
2022-08-05T07:57:13.916Z,93.90
2022-08-05T07:59:40.099Z,94.00
2022-08-05T08:02:15.517Z,94.10
2022-08-05T08:04:46.488Z,99.90
2022-08-05T08:07:15.022Z,94.00
2022-08-05T08:09:43.528Z,94.00
2022-08-05T08:12:35.549Z,94.00
2022-08-05T08:15:02.632Z,93.90
2022-08-05T08:17:32.486Z,93.90
2022-08-05T08:20:21.420Z,93.90
2022-08-05T08:22:55.673Z,93.80
2022-08-05T08:25:34.586Z,99.90
2022-08-05T08:28:18.525Z,93.60
2022-08-05T08:30:58.903Z,99.90
2022-08-05T08:33:27.261Z,92.90
2022-08-05T08:36:18.465Z,93.30
2022-08-05T08:38:42.667Z,93.00
2022-08-05T08:41:26.084Z,93.00
2022-08-05T08:45:22.265Z,92.90
2022-08-05T08:47:02.537Z,93.00
2022-08-05T08:50:06.025Z,93.40
2022-08-05T08:52:29.288Z,93.00
2022-08-05T08:54:57.816Z,92.80
2022-08-05T08:57:29.324Z,92.00
2022-08-05T09:00:10.229Z,92.00
2022-08-05T09:02:45.033Z,92.20
2022-08-05T09:05:16.483Z,92.60
2022-08-05T09:07:56.972Z,92.60
2022-08-05T09:10:27.743Z,92.10
2022-08-05T09:13:04.948Z,92.00
2022-08-05T09:15:36.964Z,91.70
2022-08-05T09:18:10.175Z,91.50
2022-08-05T09:20:43.570Z,91.20
2022-08-05T09:23:18.723Z,91.50
2022-08-05T09:26:02.571Z,91.60
2022-08-05T09:28:34.272Z,91.10
2022-08-05T09:31:22.661Z,91.10
2022-08-05T09:34:05.289Z,90.90
2022-08-05T09:36:45.911Z,91.30
2022-08-05T09:39:41.426Z,91.00
2022-08-05T09:42:17.555Z,90.50
2022-08-05T09:44:56.323Z,89.30
2022-08-05T09:47:36.552Z,90.10
2022-08-05T09:50:18.141Z,88.80
2022-08-05T09:53:01.548Z,89.20
2022-08-05T09:55:56.992Z,87.90
2022-08-05T09:58:24.078Z,87.90
2022-08-05T10:00:57.725Z,88.10
2022-08-05T10:03:51.822Z,87.80
2022-08-05T10:06:14.866Z,86.80
2022-08-05T10:08:43.327Z,86.60
2022-08-05T10:11:21.694Z,87.20
2022-08-05T10:13:54.645Z,99.90
2022-08-05T10:16:37.678Z,87.10
2022-08-05T10:19:09.215Z,86.60
2022-08-05T10:21:40.303Z,80.80
2022-08-05T10:24:13.247Z,82.40
2022-08-05T10:26:49.062Z,84.10
2022-08-05T10:29:24.085Z,84.40
2022-08-05T10:32:53.121Z,85.20
2022-08-05T10:35:00.579Z,84.50
2022-08-05T10:37:41.303Z,84.50
2022-08-05T10:40:28.579Z,84.10
2022-08-05T10:43:30.957Z,83.80
2022-08-05T10:46:09.225Z,84.30
2022-08-05T10:48:56.425Z,83.30
2022-08-05T10:51:28.599Z,83.70
2022-08-05T10:54:01.703Z,84.50
2022-08-05T10:56:45.340Z,83.70
2022-08-05T11:00:03.257Z,82.40
2022-08-05T11:02:14.028Z,81.30
2022-08-05T11:04:54.608Z,82.20
2022-08-05T11:07:32.870Z,83.30
2022-08-05T11:10:27.127Z,99.40
2022-08-05T11:12:59.262Z,83.50
2022-08-05T11:16:01.307Z,83.80
2022-08-05T11:18:34.164Z,99.70
2022-08-05T11:21:06.317Z,83.90
2022-08-05T11:24:05.717Z,83.70
2022-08-05T11:26:43.532Z,82.50
2022-08-05T11:29:38.107Z,83.20
2022-08-05T11:32:29.254Z,82.40
2022-08-05T11:34:57.495Z,82.80
2022-08-05T11:38:29.156Z,83.00
2022-08-05T11:41:34.573Z,81.00
2022-08-05T11:44:04.383Z,79.90
2022-08-05T11:47:09.925Z,81.00
2022-08-05T11:49:34.330Z,80.60
2022-08-05T11:52:08.673Z,80.80
2022-08-05T11:54:40.699Z,77.70
2022-08-05T11:57:25.351Z,78.40
2022-08-05T11:59:54.222Z,78.90
2022-08-05T12:02:33.116Z,80.40
2022-08-05T12:05:07.637Z,78.40
2022-08-05T12:08:07.389Z,78.70
2022-08-05T12:10:43.374Z,96.90
2022-08-05T12:13:18.925Z,78.20
2022-08-05T12:16:03.383Z,78.50
2022-08-05T12:18:42.733Z,78.10
2022-08-05T12:21:19.851Z,79.10
2022-08-05T12:24:17.331Z,78.80
2022-08-05T12:26:47.992Z,80.00
2022-08-05T12:29:23.034Z,97.10
2022-08-05T12:31:53.809Z,79.80
2022-08-05T12:34:39.955Z,79.00
2022-08-05T12:37:17.284Z,78.70
2022-08-05T12:39:51.453Z,78.60
2022-08-05T12:42:21.126Z,79.90
2022-08-05T12:44:48.627Z,79.20
2022-08-05T12:47:30.725Z,77.60
2022-08-05T12:50:04.010Z,77.70
2022-08-05T12:52:41.832Z,77.20
2022-08-05T12:55:25.779Z,77.10
2022-08-05T12:58:49.881Z,76.50
2022-08-05T13:01:59.712Z,77.40
2022-08-05T13:03:41.737Z,76.70
2022-08-05T13:06:16.049Z,74.10
2022-08-05T13:08:50.726Z,74.20
2022-08-05T13:11:35.056Z,75.20
2022-08-05T13:14:24.653Z,74.30
2022-08-05T13:17:07.130Z,75.40
2022-08-05T13:19:51.000Z,75.40
2022-08-05T13:22:27.961Z,75.60
2022-08-05T13:25:05.628Z,76.10
2022-08-05T13:27:45.418Z,73.70
2022-08-05T13:30:34.598Z,73.70
2022-08-05T13:33:03.660Z,73.80
2022-08-05T13:35:42.437Z,73.80
2022-08-05T13:38:19.982Z,74.70
2022-08-05T13:40:55.890Z,74.30
2022-08-05T13:43:23.241Z,73.50
2022-08-05T13:45:50.847Z,74.20
2022-08-05T13:49:00.281Z,75.40
2022-08-05T13:51:14.968Z,75.30
2022-08-05T13:53:47.922Z,74.40
2022-08-05T13:56:18.793Z,74.10
2022-08-05T13:58:52.928Z,74.40
2022-08-05T14:01:25.892Z,74.00
2022-08-05T14:04:22.187Z,73.90
2022-08-05T14:06:58.879Z,72.80
2022-08-05T14:09:43.025Z,72.90
2022-08-05T14:12:18.110Z,72.40
2022-08-05T14:14:59.585Z,72.60
2022-08-05T14:17:28.379Z,70.40
2022-08-05T14:20:00.977Z,71.00
2022-08-05T14:22:34.559Z,70.30
2022-08-05T14:25:06.137Z,70.80
2022-08-05T14:27:48.389Z,94.10
2022-08-05T14:30:20.689Z,72.50
2022-08-05T14:32:49.118Z,73.10
2022-08-05T14:35:20.512Z,73.10
2022-08-05T14:37:52.205Z,73.10
2022-08-05T14:40:24.509Z,73.50
2022-08-05T14:42:52.429Z,71.70
2022-08-05T14:45:19.785Z,72.50
2022-08-05T14:48:03.103Z,72.90
2022-08-05T14:50:32.082Z,73.20
2022-08-05T14:53:00.238Z,72.90
2022-08-05T14:55:39.496Z,72.00
2022-08-05T14:58:11.946Z,71.00
2022-08-05T15:00:58.590Z,70.00
2022-08-05T15:03:33.395Z,69.40
2022-08-05T15:06:07.314Z,68.60
2022-08-05T15:08:59.375Z,67.60
2022-08-05T15:11:51.611Z,65.80
2022-08-05T15:14:33.173Z,66.30
2022-08-05T15:17:04.002Z,65.30
2022-08-05T15:19:32.330Z,66.10
2022-08-05T15:22:00.996Z,65.20
2022-08-05T15:24:29.179Z,64.60
2022-08-05T15:26:56.999Z,64.90
2022-08-05T15:29:30.246Z,65.50
2022-08-05T15:32:03.059Z,65.40
2022-08-05T15:34:33.672Z,65.90
2022-08-05T15:37:06.446Z,66.00
2022-08-05T15:41:00.921Z,67.00
2022-08-05T15:42:56.101Z,68.00
2022-08-05T15:45:17.389Z,67.30
2022-08-05T15:47:46.336Z,67.50
2022-08-05T15:50:15.926Z,67.70
2022-08-05T15:52:53.499Z,68.70
2022-08-05T15:55:24.954Z,69.50
2022-08-05T15:58:16.659Z,69.80
2022-08-05T16:00:50.553Z,69.70
2022-08-05T16:03:32.827Z,70.00
2022-08-05T16:06:02.333Z,69.70
2022-08-05T16:08:30.720Z,92.50
2022-08-05T16:10:59.188Z,68.70
2022-08-05T16:13:34.428Z,69.00
2022-08-05T16:16:05.650Z,68.90
2022-08-05T16:18:33.220Z,69.30
2022-08-05T16:21:04.778Z,68.80
2022-08-05T16:23:53.934Z,68.10
2022-08-05T16:26:26.596Z,66.80
2022-08-05T16:28:55.120Z,65.80
2022-08-05T16:31:22.825Z,66.20
2022-08-05T16:33:52.149Z,66.70
2022-08-05T16:36:23.873Z,65.90
2022-08-05T16:38:54.841Z,65.80
2022-08-05T16:42:13.049Z,67.20
2022-08-05T16:44:17.907Z,67.60
2022-08-05T16:46:55.802Z,67.90
2022-08-05T16:49:23.945Z,67.30
2022-08-05T16:51:54.887Z,68.00
2022-08-05T16:54:28.866Z,67.60
2022-08-05T16:57:00.257Z,66.60
2022-08-05T16:59:30.723Z,66.60
2022-08-05T17:01:58.372Z,66.00
2022-08-05T17:04:28.541Z,66.20
2022-08-05T17:07:03.504Z,66.90
2022-08-05T17:09:57.364Z,66.90
2022-08-05T17:12:51.539Z,66.30
2022-08-05T17:15:15.577Z,66.00
2022-08-05T17:17:44.016Z,65.00
2022-08-05T17:20:14.613Z,65.30
2022-08-05T17:22:42.302Z,64.90
2022-08-05T17:25:34.204Z,64.70
2022-08-05T17:27:59.802Z,64.70
2022-08-05T17:30:29.055Z,62.40
2022-08-05T17:32:56.991Z,62.30
2022-08-05T17:35:24.349Z,63.40
2022-08-05T17:37:52.099Z,63.30
2022-08-05T17:40:27.874Z,63.40
2022-08-05T17:42:58.938Z,64.20
2022-08-05T17:45:37.893Z,64.20
2022-08-05T17:48:07.865Z,64.40
2022-08-05T17:50:35.476Z,63.70
2022-08-05T17:53:04.559Z,63.60
2022-08-05T17:55:37.198Z,63.60
2022-08-05T17:58:12.558Z,62.30
2022-08-05T18:00:45.440Z,63.10
2022-08-05T18:03:39.322Z,63.10
2022-08-05T18:06:11.040Z,88.50
2022-08-05T18:08:40.588Z,62.30
2022-08-05T18:11:24.779Z,62.20
2022-08-05T18:14:01.189Z,61.60
2022-08-05T18:16:32.017Z,61.90
2022-08-05T18:18:59.375Z,62.50
2022-08-05T18:21:28.155Z,62.20
2022-08-05T18:24:14.369Z,61.20
2022-08-05T18:26:42.116Z,62.00
2022-08-05T18:29:11.358Z,63.10
2022-08-05T18:31:43.189Z,63.40
2022-08-05T18:34:12.242Z,63.20
2022-08-05T18:36:41.221Z,63.30
2022-08-05T18:39:41.990Z,62.90
2022-08-05T18:42:03.589Z,62.50
2022-08-05T18:44:51.444Z,61.50
2022-08-05T18:47:22.852Z,62.50
2022-08-05T18:50:15.682Z,61.40
2022-08-05T18:52:51.410Z,62.00
2022-08-05T18:55:20.494Z,61.40
2022-08-05T18:57:53.061Z,61.40
2022-08-05T19:00:28.468Z,62.80
2022-08-05T19:02:57.525Z,62.40
2022-08-05T19:06:11.363Z,62.70
2022-08-05T19:08:18.831Z,63.10
2022-08-05T19:10:46.218Z,63.50
2022-08-05T19:13:15.966Z,63.80
2022-08-05T19:15:57.036Z,64.00
2022-08-05T19:18:28.727Z,64.20
2022-08-05T19:20:56.340Z,64.90
2022-08-05T19:24:05.321Z,65.70
2022-08-05T19:26:12.067Z,66.20
2022-08-05T19:28:43.635Z,66.70
2022-08-05T19:31:13.329Z,67.80
2022-08-05T19:33:48.376Z,68.50
2022-08-05T19:36:25.905Z,69.40
2022-08-05T19:39:00.996Z,70.10
2022-08-05T19:42:05.883Z,70.80
2022-08-05T19:44:18.795Z,71.50
2022-08-05T19:46:46.548Z,72.00
2022-08-05T19:49:16.812Z,72.30
2022-08-05T19:52:09.142Z,73.30
2022-08-05T19:54:34.340Z,73.60
2022-08-05T19:57:09.437Z,75.50
2022-08-05T19:59:56.343Z,74.50
2022-08-05T20:02:28.021Z,74.20
2022-08-05T20:04:58.815Z,74.40
2022-08-05T20:07:46.345Z,74.60
2022-08-05T20:10:17.335Z,78.60
2022-08-05T20:12:49.066Z,78.50
2022-08-05T20:15:47.932Z,79.50
2022-08-05T20:18:10.973Z,79.10
2022-08-05T20:20:56.176Z,79.90
2022-08-05T20:23:39.818Z,80.70
2022-08-05T20:26:17.086Z,80.50
2022-08-05T20:28:47.927Z,98.60
2022-08-05T20:31:16.641Z,80.60
2022-08-05T20:33:45.312Z,81.10
2022-08-05T20:36:14.192Z,81.10
2022-08-05T20:38:54.068Z,81.40
2022-08-05T20:41:27.494Z,82.90
2022-08-05T20:44:18.579Z,82.30
2022-08-05T20:46:48.053Z,82.90
2022-08-05T20:49:24.213Z,82.60
2022-08-05T20:51:55.714Z,82.50
2022-08-05T20:54:43.349Z,83.00
2022-08-05T20:57:24.644Z,82.80
2022-08-05T21:00:20.891Z,83.10
2022-08-05T21:02:57.000Z,83.90
2022-08-05T21:07:52.619Z,82.70
2022-08-05T21:10:21.577Z,84.10
2022-08-05T21:12:58.039Z,84.50
2022-08-05T21:15:35.603Z,84.30
2022-08-05T21:18:03.748Z,84.10
2022-08-05T21:20:33.300Z,84.10
2022-08-05T21:25:33.934Z,83.10
2022-08-05T21:28:03.092Z,84.80
2022-08-05T21:30:31.403Z,84.60
2022-08-05T21:32:58.701Z,84.70
2022-08-05T21:35:29.882Z,85.00
2022-08-05T21:37:58.341Z,85.10
2022-08-05T21:40:26.150Z,99.90
2022-08-05T21:42:53.946Z,85.40
2022-08-05T21:45:24.460Z,85.50
2022-08-05T21:47:56.774Z,86.40
2022-08-05T21:50:28.278Z,86.10
2022-08-05T21:55:42.869Z,85.30
2022-08-05T21:58:19.909Z,86.00
2022-08-05T22:00:52.164Z,86.60
2022-08-05T22:03:20.567Z,86.50
2022-08-05T22:06:08.354Z,86.80
2022-08-05T22:08:35.722Z,99.90
2022-08-05T22:11:03.076Z,86.90
2022-08-05T22:14:05.719Z,87.30
2022-08-05T22:16:41.295Z,87.10
2022-08-05T22:19:56.161Z,87.00
2022-08-05T22:21:56.179Z,87.10
2022-08-05T22:24:52.131Z,87.80
2022-08-05T22:28:08.707Z,87.00
2022-08-05T22:30:32.134Z,87.60
2022-08-05T22:33:04.065Z,88.20
2022-08-05T22:35:48.899Z,88.80
2022-08-05T22:38:18.955Z,88.50
2022-08-05T22:40:49.983Z,88.60
2022-08-05T22:43:36.247Z,89.20
2022-08-05T22:46:13.623Z,88.90
2022-08-05T22:48:51.037Z,89.20
2022-08-05T22:51:22.858Z,89.60
2022-08-05T22:53:57.235Z,89.40
2022-08-05T22:56:30.370Z,90.00
2022-08-05T22:59:03.209Z,90.20
2022-08-05T23:02:04.335Z,90.00
2022-08-05T23:04:33.715Z,90.20
2022-08-05T23:07:01.485Z,90.40
2022-08-05T23:09:57.953Z,90.50
2022-08-05T23:12:17.919Z,90.20
2022-08-05T23:14:45.398Z,90.20
2022-08-05T23:17:34.737Z,90.50
2022-08-05T23:20:16.784Z,90.10
2022-08-05T23:22:47.263Z,91.20
2022-08-05T23:25:17.139Z,90.70
2022-08-05T23:28:02.772Z,90.50
2022-08-05T23:30:31.348Z,90.80
2022-08-05T23:32:58.933Z,90.70
2022-08-05T23:35:28.628Z,90.60
2022-08-05T23:38:01.851Z,90.80
2022-08-05T23:40:29.250Z,91.00
2022-08-05T23:42:56.561Z,90.80
2022-08-05T23:45:23.929Z,91.10
2022-08-05T23:47:53.899Z,91.10
2022-08-05T23:50:27.308Z,91.10
2022-08-05T23:52:58.307Z,91.60
2022-08-05T23:55:31.094Z,91.50
2022-08-05T23:57:58.652Z,91.60
